Time;durP1;ratioP1;P1;durP2;ratioP2;P2;SDS_P1;SDS_P2;PMS_P1;PMS_P2;Temp;Humidity;BMP_temperature;BMP_pressure;BME280_temperature;BME280_humidity;BME280_pressure;Samples;Min_cycle;Max_cycle;Signal;HPM_P1;HPM_P2
2022/11/05 00:09:28;;;;;;;14.43;5.10;;;7.10;1.00;;;;;;4931241;29;20492;-48
2022/11/05 00:17:23;;;;;;;13.10;5.27;;;7.10;1.00;;;;;;4919606;29;20890;-49
2022/11/05 00:19:49;;;;;;;20.57;5.37;;;7.10;1.00;;;;;;4930460;29;20434;-45
2022/11/05 00:25:15;;;;;;;24.73;5.40;;;7.00;1.00;;;;;;4931538;29;20261;-45
2022/11/05 00:27:48;;;;;;;20.73;5.17;;;7.10;1.00;;;;;;4934103;29;20754;-46
2022/11/05 00:30:17;;;;;;;14.60;5.40;;;7.00;1.00;;;;;;4934971;29;20445;-44
2022/11/05 00:32:44;;;;;;;18.23;5.53;;;7.10;1.00;;;;;;4933058;29;20449;-45
2022/11/05 00:35:10;;;;;;;13.43;5.77;;;7.10;1.00;;;;;;4932806;29;20446;-45
2022/11/05 00:37:36;;;;;;;21.37;5.20;;;7.10;1.00;;;;;;4933076;29;20485;-46
2022/11/05 00:40:02;;;;;;;16.13;5.43;;;7.10;1.00;;;;;;4933272;29;20444;-45
2022/11/05 00:45:30;;;;;;;11.33;4.83;;;7.20;1.00;;;;;;4913606;29;20514;-45
2022/11/05 00:50:40;;;;;;;58.60;35.77;;;7.20;1.00;;;;;;4934883;29;21054;-45
2022/11/05 00:53:06;;;;;;;15.40;5.77;;;7.10;1.00;;;;;;4934986;29;20442;-45
2022/11/05 00:55:40;;;;;;;16.53;5.73;;;7.20;1.00;;;;;;4935091;29;20241;-46
2022/11/05 00:58:08;;;;;;;12.07;5.67;;;7.10;1.00;;;;;;4934106;29;20570;-45
2022/11/05 01:00:36;;;;;;;15.17;4.70;;;7.20;1.00;;;;;;4934979;29;20434;-45
2022/11/05 01:03:08;;;;;;;14.87;5.20;;;7.10;1.00;;;;;;4934330;29;20529;-46
2022/11/05 01:05:36;;;;;;;13.77;5.90;;;7.00;1.00;;;;;;4934681;29;20444;-45
2022/11/05 01:08:02;;;;;;;13.87;5.63;;;7.00;1.00;;;;;;4934610;29;20438;-45
2022/11/05 01:10:29;;;;;;;11.37;5.23;;;7.00;1.00;;;;;;4934711;29;20442;-45
2022/11/05 01:12:56;;;;;;;17.47;5.47;;;7.00;1.00;;;;;;4930485;29;20497;-45
2022/11/05 01:15:21;;;;;;;12.40;5.90;;;7.00;1.00;;;;;;4924231;29;20434;-45
2022/11/05 01:17:47;;;;;;;17.83;5.30;;;6.90;1.00;;;;;;4934495;29;20929;-45
2022/11/05 01:20:13;;;;;;;16.63;5.23;;;6.90;1.00;;;;;;4934584;29;20190;-47
2022/11/05 01:22:38;;;;;;;13.53;5.33;;;6.90;1.00;;;;;;4934392;29;20257;-46
2022/11/05 01:25:06;;;;;;;18.47;5.00;;;6.90;1.00;;;;;;4934666;29;20198;-45
2022/11/05 01:27:31;;;;;;;15.00;4.70;;;6.80;1.00;;;;;;4934364;29;20193;-45
2022/11/05 01:29:57;;;;;;;14.53;4.57;;;6.80;1.00;;;;;;4934033;29;20445;-44
2022/11/05 01:32:23;;;;;;;15.53;5.57;;;6.80;1.00;;;;;;4934337;29;20203;-45
2022/11/05 01:34:48;;;;;;;15.80;5.70;;;6.70;1.00;;;;;;4934382;29;20273;-46
2022/11/05 01:37:14;;;;;;;14.63;4.60;;;6.70;1.00;;;;;;4930551;29;20206;-45
2022/11/05 01:39:39;;;;;;;21.27;4.83;;;6.70;1.00;;;;;;4918862;29;20186;-45
2022/11/05 01:42:20;;;;;;;14.73;5.50;;;6.60;1.00;;;;;;4934140;29;20194;-45
2022/11/05 01:45:13;;;;;;;22.73;5.90;;;6.60;1.00;;;;;;4933956;29;21014;-45
2022/11/05 01:48:19;;;;;;;15.37;5.10;;;6.70;1.00;;;;;;4934086;29;20510;-45
2022/11/05 01:50:59;;;;;;;14.17;5.17;;;6.60;1.00;;;;;;4912477;29;20459;-45
2022/11/05 01:53:59;;;;;;;11.93;4.70;;;6.60;1.00;;;;;;4912875;29;20445;-45
2022/11/05 01:56:42;;;;;;;9.50;5.33;;;6.60;1.00;;;;;;4918804;29;20500;-45
2022/11/05 01:59:18;;;;;;;11.93;5.23;;;6.60;1.00;;;;;;4933928;29;20915;-45
2022/11/05 02:01:44;;;;;;;13.73;5.57;;;6.50;1.00;;;;;;4932843;29;20474;-45
2022/11/05 02:04:16;;;;;;;19.13;6.30;;;6.50;1.00;;;;;;4933852;29;20438;-45
2022/11/05 02:06:45;;;;;;;16.23;5.77;;;6.50;1.00;;;;;;4933532;29;20186;-45
2022/11/05 02:09:32;;;;;;;17.50;5.60;;;6.50;1.00;;;;;;4933989;29;20430;-46
2022/11/05 02:11:57;;;;;;;12.13;5.37;;;6.50;1.00;;;;;;4933659;29;20426;-46
2022/11/05 02:14:23;;;;;;;19.37;6.20;;;6.40;1.00;;;;;;4933532;29;20932;-45
2022/11/05 02:17:07;;;;;;;15.17;5.80;;;6.40;1.00;;;;;;4933898;29;20580;-46
2022/11/05 02:19:42;;;;;;;17.37;5.50;;;6.40;1.00;;;;;;4933475;29;20198;-45
2022/11/05 02:22:44;;;;;;;19.20;5.93;;;6.40;1.00;;;;;;4933775;29;20783;-46
2022/11/05 02:25:29;;;;;;;15.37;5.60;;;6.40;1.00;;;;;;4921607;29;20849;-46
2022/11/05 02:28:02;;;;;;;18.80;6.30;;;6.40;1.00;;;;;;4923063;29;20438;-45
2022/11/05 02:30:50;;;;;;;16.30;6.37;;;6.30;1.00;;;;;;4915070;29;20510;-45
2022/11/05 02:33:35;;;;;;;20.60;6.80;;;6.30;1.00;;;;;;4926002;29;20433;-45
2022/11/05 02:36:18;;;;;;;20.73;6.60;;;6.30;1.00;;;;;;4933537;29;20917;-45
2022/11/05 02:38:53;;;;;;;18.00;6.10;;;6.30;1.00;;;;;;4933588;29;20473;-45
2022/11/05 02:41:31;;;;;;;16.33;6.70;;;6.30;1.00;;;;;;4933558;29;20426;-46
2022/11/05 02:44:01;;;;;;;19.67;7.53;;;6.30;1.00;;;;;;4933865;29;20418;-45
2022/11/05 02:46:45;;;;;;;19.80;6.20;;;6.30;1.00;;;;;;4933614;29;20488;-45
2022/11/05 02:49:41;;;;;;;13.37;6.27;;;6.30;1.00;;;;;;4933390;29;20494;-46
2022/11/05 02:52:22;;;;;;;25.93;7.20;;;6.20;1.00;;;;;;4914743;29;20431;-45
2022/11/05 02:55:02;;;;;;;15.57;6.47;;;6.20;1.00;;;;;;4931521;29;20443;-46
2022/11/05 02:57:28;;;;;;;14.63;6.73;;;6.20;1.00;;;;;;4933636;29;20458;-46
2022/11/05 03:00:03;;;;;;;16.73;6.63;;;6.20;1.00;;;;;;4933365;29;20445;-45
2022/11/05 03:02:29;;;;;;;22.53;6.80;;;6.20;1.00;;;;;;4933671;29;20460;-46
2022/11/05 03:04:54;;;;;;;17.70;7.90;;;6.20;1.00;;;;;;4933231;29;21001;-45
2022/11/05 03:07:52;;;;;;;14.07;5.97;;;6.10;1.00;;;;;;4933669;29;20198;-50
2022/11/05 03:10:36;;;;;;;13.10;6.20;;;6.10;1.00;;;;;;4932330;29;20186;-49
2022/11/05 03:13:17;;;;;;;13.10;6.00;;;6.10;1.00;;;;;;4933667;29;20527;-49
2022/11/05 03:15:55;;;;;;;18.83;6.30;;;6.10;1.00;;;;;;4936017;29;20477;-49
2022/11/05 03:18:54;;;;;;;20.53;6.20;;;6.10;1.00;;;;;;4936775;29;20781;-49
2022/11/05 03:21:27;;;;;;;18.33;7.17;;;6.10;1.00;;;;;;4931901;29;20478;-50
2022/11/05 03:24:19;;;;;;;14.10;6.83;;;6.10;1.00;;;;;;4936728;29;20430;-49
2022/11/05 03:27:12;;;;;;;19.47;6.33;;;6.10;1.00;;;;;;4917542;29;20498;-49
2022/11/05 03:29:43;;;;;;;23.17;7.03;;;6.10;1.00;;;;;;4924040;29;20426;-51
2022/11/05 03:32:11;;;;;;;16.83;7.37;;;6.10;1.00;;;;;;4936362;29;20469;-49
2022/11/05 03:34:50;;;;;;;18.63;6.83;;;6.10;1.00;;;;;;4936581;29;20463;-49
2022/11/05 03:37:21;;;;;;;21.53;6.30;;;6.10;1.00;;;;;;4932352;29;20486;-49
2022/11/05 03:39:52;;;;;;;13.67;6.17;;;6.00;1.00;;;;;;4935124;29;21056;-45
2022/11/05 03:42:24;;;;;;;17.23;6.03;;;6.10;1.00;;;;;;4936829;29;20448;-45
2022/11/05 03:44:55;;;;;;;18.33;6.73;;;6.10;1.00;;;;;;4936886;29;20422;-45
2022/11/05 03:47:31;;;;;;;19.03;6.73;;;6.10;1.00;;;;;;4936328;29;20453;-45
2022/11/05 03:50:04;;;;;;;14.83;6.73;;;6.00;1.00;;;;;;4936468;29;20449;-45
2022/11/05 03:52:36;;;;;;;13.33;6.60;;;6.00;1.00;;;;;;4936302;29;20851;-45
2022/11/05 03:55:02;;;;;;;18.23;6.60;;;6.00;1.00;;;;;;4933075;29;20456;-45
2022/11/05 03:57:35;;;;;;;25.13;7.33;;;6.00;1.00;;;;;;4936109;29;20480;-45
2022/11/05 04:00:05;;;;;;;14.33;6.03;;;6.00;1.00;;;;;;4936120;29;20430;-45
2022/11/05 04:02:31;;;;;;;15.50;6.53;;;6.10;1.00;;;;;;4936261;29;20434;-45
2022/11/05 04:04:56;;;;;;;21.30;6.80;;;6.10;1.00;;;;;;4935924;29;20490;-45
2022/11/05 04:17:05;;;;;;;27.97;6.87;;;6.00;1.00;;;;;;4936293;29;20428;-45
2022/11/05 04:18:20;;;;;;;18.07;7.10;;;6.00;1.00;;;;;;4935614;29;20505;-45
2022/11/05 04:26:14;;;;;;;21.23;6.67;;;6.00;1.00;;;;;;4935029;29;20815;-45
2022/11/05 04:31:24;;;;;;;15.50;6.50;;;5.90;1.00;;;;;;4920593;29;20718;-45
2022/11/05 04:33:49;;;;;;;19.00;7.90;;;5.90;1.00;;;;;;4934712;29;20489;-45
2022/11/05 04:36:15;;;;;;;16.43;6.70;;;5.90;1.00;;;;;;4935140;29;20201;-48
2022/11/05 04:38:40;;;;;;;19.90;7.20;;;5.90;1.00;;;;;;4935462;29;20214;-45
2022/11/05 04:41:14;;;;;;;14.83;6.87;;;5.90;1.00;;;;;;4935310;29;20562;-46
2022/11/05 04:43:40;;;;;;;14.00;7.03;;;5.80;1.00;;;;;;4935593;29;20501;-45
2022/11/05 04:46:06;;;;;;;15.03;6.80;;;5.80;1.00;;;;;;4934003;29;20441;-45
2022/11/05 04:48:31;;;;;;;21.60;7.37;;;5.80;1.00;;;;;;4935638;29;21009;-46
2022/11/05 04:50:57;;;;;;;23.23;6.70;;;5.80;1.00;;;;;;4931472;29;20549;-45
2022/11/05 04:53:22;;;;;;;11.57;6.97;;;5.80;1.00;;;;;;4934634;29;20190;-45
2022/11/05 04:55:48;;;;;;;16.27;6.77;;;5.80;1.00;;;;;;4935492;29;20206;-45
2022/11/05 04:58:13;;;;;;;29.20;6.90;;;5.80;1.00;;;;;;4934904;29;20206;-45
2022/11/05 05:00:39;;;;;;;12.27;6.30;;;5.90;1.00;;;;;;4935444;29;20174;-45
2022/11/05 05:03:05;;;;;;;11.73;6.03;;;5.80;1.00;;;;;;4934545;29;20190;-46
2022/11/05 05:05:30;;;;;;;16.27;6.53;;;5.80;1.00;;;;;;4935499;29;20197;-45
2022/11/05 05:08:04;;;;;;;20.53;6.63;;;5.80;1.00;;;;;;4935176;29;20205;-45
2022/11/05 05:10:30;;;;;;;17.23;6.87;;;5.80;1.00;;;;;;4935080;29;20597;-45
2022/11/05 05:12:56;;;;;;;22.40;7.50;;;5.80;1.00;;;;;;4934936;29;20435;-45
2022/11/05 05:15:22;;;;;;;14.70;6.50;;;5.80;1.00;;;;;;4934820;29;20442;-45
2022/11/05 05:17:51;;;;;;;11.23;6.53;;;5.80;1.00;;;;;;4934558;29;20206;-45
2022/11/05 05:23:03;;;;;;;15.77;7.00;;;5.70;1.00;;;;;;4935199;29;20437;-45
2022/11/05 05:25:28;;;;;;;21.10;7.50;;;5.70;1.00;;;;;;4934706;29;20426;-45
2022/11/05 05:27:58;;;;;;;13.20;6.50;;;5.70;1.00;;;;;;4935045;29;20465;-48
2022/11/05 05:30:24;;;;;;;12.17;6.63;;;5.70;99.90;;;;;;4934422;29;20198;-48
2022/11/05 05:32:50;;;;;;;18.00;7.13;;;5.70;99.90;;;;;;4934730;29;20478;-47
2022/11/05 05:35:15;;;;;;;16.43;7.00;;;5.70;99.90;;;;;;4934669;29;20193;-45
2022/11/05 05:37:41;;;;;;;17.13;7.63;;;5.60;99.90;;;;;;4934087;29;20901;-45
2022/11/05 05:40:08;;;;;;;17.60;7.73;;;5.60;99.90;;;;;;4934326;29;20178;-45
2022/11/05 05:42:34;;;;;;;15.97;7.43;;;5.60;99.90;;;;;;4934504;29;20531;-45
2022/11/05 05:44:59;;;;;;;18.60;7.70;;;5.60;99.90;;;;;;4934065;29;20527;-45
2022/11/05 05:47:25;;;;;;;16.93;7.10;;;5.70;99.90;;;;;;4934456;29;20256;-47
2022/11/05 05:49:51;;;;;;;13.10;7.00;;;5.70;99.90;;;;;;4934259;29;20195;-48
2022/11/05 05:52:16;;;;;;;18.47;7.70;;;5.70;99.90;;;;;;4934354;29;20532;-48
2022/11/05 05:54:43;;;;;;;16.77;7.00;;;5.80;99.90;;;;;;4934099;29;20289;-48
2022/11/05 05:57:09;;;;;;;18.13;6.73;;;5.80;99.90;;;;;;4933857;29;20839;-48
2022/11/05 05:59:34;;;;;;;16.53;7.10;;;5.70;99.90;;;;;;4933962;29;20167;-48
2022/11/05 06:02:00;;;;;;;18.17;7.00;;;5.70;99.90;;;;;;4934140;29;20197;-48
2022/11/05 06:04:26;;;;;;;16.63;5.97;;;5.70;99.90;;;;;;4932859;29;20679;-48
2022/11/05 06:06:51;;;;;;;15.93;6.63;;;5.70;99.90;;;;;;4933842;29;20645;-45
2022/11/05 06:09:17;;;;;;;17.50;6.50;;;5.60;99.90;;;;;;4933774;29;20226;-45
2022/11/05 06:11:43;;;;;;;12.93;6.60;;;5.60;99.90;;;;;;4932526;29;20629;-45
2022/11/05 06:14:10;;;;;;;15.70;7.33;;;5.60;99.90;;;;;;4922826;29;20191;-45
2022/11/05 06:16:37;;;;;;;19.27;7.00;;;5.60;99.90;;;;;;4930881;29;20201;-44
2022/11/05 06:19:03;;;;;;;16.13;6.80;;;5.60;99.90;;;;;;4934018;29;20564;-45
2022/11/05 06:21:29;;;;;;;11.97;6.93;;;5.60;99.90;;;;;;4934465;29;20891;-45
2022/11/05 06:23:55;;;;;;;20.10;8.20;;;5.60;99.90;;;;;;4933705;29;20511;-45
2022/11/05 06:26:20;;;;;;;13.60;6.63;;;5.50;99.90;;;;;;4934411;29;20969;-45
2022/11/05 06:28:46;;;;;;;17.53;7.53;;;5.50;99.90;;;;;;4933691;29;20955;-45
2022/11/05 06:31:13;;;;;;;14.40;7.60;;;5.50;99.90;;;;;;4933843;29;20205;-45
2022/11/05 06:33:39;;;;;;;12.93;6.80;;;5.60;99.90;;;;;;4933973;29;20194;-45
2022/11/05 06:36:05;;;;;;;12.80;7.63;;;5.60;99.90;;;;;;4933655;29;20909;-46
2022/11/05 06:38:33;;;;;;;17.90;8.10;;;5.70;99.90;;;;;;4933807;29;20218;-44
2022/11/05 06:40:59;;;;;;;16.67;8.40;;;5.60;99.90;;;;;;4933424;29;20442;-45
2022/11/05 06:43:26;;;;;;;20.23;8.63;;;5.60;99.90;;;;;;4934189;29;20502;-45
2022/11/05 06:45:52;;;;;;;16.87;8.57;;;5.60;99.90;;;;;;4933297;29;20430;-44
2022/11/05 06:48:18;;;;;;;12.90;8.53;;;5.60;99.90;;;;;;4933989;29;20481;-45
2022/11/05 06:50:44;;;;;;;15.57;8.00;;;5.60;99.90;;;;;;4937362;29;20663;-45
2022/11/05 06:53:10;;;;;;;13.77;7.40;;;5.60;99.90;;;;;;4937367;29;20190;-45
2022/11/05 06:55:35;;;;;;;13.37;8.00;;;5.60;99.90;;;;;;4937519;29;20428;-45
2022/11/05 06:58:01;;;;;;;17.00;8.07;;;5.60;99.90;;;;;;4937503;29;20257;-49
2022/11/05 07:00:26;;;;;;;12.50;8.30;;;5.60;99.90;;;;;;4936660;29;20253;-44
2022/11/05 07:02:54;;;;;;;18.67;8.67;;;5.50;99.90;;;;;;4935915;29;20186;-45
2022/11/05 07:05:20;;;;;;;19.27;8.10;;;5.50;99.90;;;;;;4937501;29;20202;-46
2022/11/05 07:07:46;;;;;;;15.37;7.70;;;5.50;99.90;;;;;;4937142;29;20905;-45
2022/11/05 07:10:14;;;;;;;18.70;8.80;;;5.50;99.90;;;;;;4937266;29;20437;-45
2022/11/05 07:12:40;;;;;;;13.67;7.43;;;5.60;99.90;;;;;;4937139;29;20876;-45
2022/11/05 07:15:07;;;;;;;17.63;7.97;;;5.60;99.90;;;;;;4937026;29;20454;-45
2022/11/05 07:17:32;;;;;;;17.20;7.90;;;5.70;99.90;;;;;;4936675;29;20261;-44
2022/11/05 07:19:58;;;;;;;16.07;7.13;;;5.70;99.90;;;;;;4933150;29;20442;-45
2022/11/05 07:22:23;;;;;;;13.10;7.60;;;5.70;99.90;;;;;;4936744;29;20189;-45
2022/11/05 07:24:49;;;;;;;15.53;7.90;;;5.70;99.90;;;;;;4937118;29;20292;-45
2022/11/05 07:27:15;;;;;;;15.20;7.30;;;5.80;99.90;;;;;;4936594;29;20183;-44
2022/11/05 07:29:41;;;;;;;16.83;8.10;;;5.80;99.90;;;;;;4937017;29;20626;-48
2022/11/05 07:32:06;;;;;;;18.00;7.40;;;5.90;99.90;;;;;;4936417;29;20437;-48
2022/11/05 07:34:32;;;;;;;13.33;7.20;;;5.90;99.90;;;;;;4917870;29;20202;-48
2022/11/05 07:36:58;;;;;;;15.70;7.53;;;5.90;99.90;;;;;;4932051;29;20174;-48
2022/11/05 07:39:23;;;;;;;9.20;7.13;;;6.00;99.90;;;;;;4936558;29;20195;-48
2022/11/05 07:41:51;;;;;;;13.33;6.50;;;6.00;99.90;;;;;;4935990;29;20253;-48
2022/11/05 07:44:17;;;;;;;12.13;6.43;;;6.10;99.90;;;;;;4932297;29;20190;-49
2022/11/05 07:46:42;;;;;;;14.77;6.70;;;6.10;99.90;;;;;;4936452;29;20789;-48
2022/11/05 07:49:08;;;;;;;17.53;7.53;;;6.10;99.90;;;;;;4935726;29;20245;-47
2022/11/05 07:51:34;;;;;;;18.00;7.60;;;6.20;99.90;;;;;;4936618;29;20197;-48
2022/11/05 07:53:59;;;;;;;16.07;6.90;;;6.20;99.90;;;;;;4935877;29;20724;-48
2022/11/05 07:56:25;;;;;;;19.40;7.17;;;6.20;99.90;;;;;;4936941;29;20246;-48
2022/11/05 07:58:51;;;;;;;12.60;6.53;;;6.30;99.90;;;;;;4936551;29;20659;-47
2022/11/05 08:01:16;;;;;;;14.23;6.70;;;6.30;99.90;;;;;;4935579;29;20265;-48
2022/11/05 08:03:42;;;;;;;15.13;6.60;;;6.40;99.90;;;;;;4936557;29;20230;-46
2022/11/05 08:06:07;;;;;;;11.87;6.87;;;6.50;99.90;;;;;;4934585;29;20174;-45
2022/11/05 08:08:34;;;;;;;13.73;6.10;;;6.50;99.90;;;;;;4920756;29;20191;-46
2022/11/05 08:11:07;;;;;;;12.90;6.40;;;6.60;99.90;;;;;;4936137;29;20246;-46
2022/11/05 08:13:33;;;;;;;12.93;6.20;;;6.70;96.60;;;;;;4933806;29;20489;-53
2022/11/05 08:16:00;;;;;;;13.63;6.00;;;6.70;61.10;;;;;;4927327;29;20454;-46
2022/11/05 08:18:30;;;;;;;17.03;6.70;;;6.70;35.40;;;;;;4927985;29;20466;-46
2022/11/05 08:20:58;;;;;;;11.13;5.87;;;6.80;27.70;;;;;;4929067;29;20505;-46
2022/11/05 08:23:25;;;;;;;14.20;6.10;;;6.90;7.00;;;;;;4931105;29;20441;-44
2022/11/05 08:25:50;;;;;;;12.43;6.43;;;6.90;1.00;;;;;;4928826;29;20917;-44
2022/11/05 08:28:16;;;;;;;15.67;6.80;;;7.00;1.00;;;;;;4929381;29;20453;-44
2022/11/05 08:30:42;;;;;;;10.53;5.60;;;7.00;1.00;;;;;;4934866;29;20274;-44
2022/11/05 08:33:12;;;;;;;11.87;6.00;;;7.10;1.00;;;;;;4929735;29;20182;-44
2022/11/05 08:35:38;;;;;;;12.37;5.80;;;7.10;1.00;;;;;;4926077;29;20229;-43
2022/11/05 08:38:05;;;;;;;13.20;6.20;;;7.20;1.00;;;;;;4935469;29;20980;-44
2022/11/05 08:40:33;;;;;;;11.53;5.20;;;7.30;1.00;;;;;;4931113;29;20434;-44
2022/11/05 08:43:01;;;;;;;13.20;5.30;;;7.30;1.00;;;;;;4934219;29;20767;-43
2022/11/05 08:45:28;;;;;;;11.63;6.17;;;7.40;1.00;;;;;;4935437;29;20442;-43
2022/11/05 08:48:02;;;;;;;10.00;5.80;;;7.40;1.00;;;;;;4934836;29;20513;-43
2022/11/05 08:50:28;;;;;;;16.20;5.10;;;7.50;1.00;;;;;;4934042;29;20908;-44
2022/11/05 08:52:54;;;;;;;15.37;5.10;;;7.50;1.00;;;;;;4922436;29;20435;-44
2022/11/05 08:55:19;;;;;;;13.10;5.63;;;7.60;1.00;;;;;;4926465;29;20622;-44
2022/11/05 08:57:45;;;;;;;12.00;5.23;;;7.70;1.00;;;;;;4928417;29;20221;-44
2022/11/05 09:00:12;;;;;;;8.97;5.67;;;7.80;1.00;;;;;;4929459;29;20210;-44
2022/11/05 09:02:37;;;;;;;10.00;4.73;;;7.90;1.00;;;;;;4921284;29;20187;-43
2022/11/05 09:05:03;;;;;;;8.37;5.50;;;7.90;99.90;;;;;;4932799;29;20489;-44
2022/11/05 09:07:29;;;;;;;11.50;5.37;;;8.00;99.90;;;;;;4931960;29;20194;-44
2022/11/05 09:09:54;;;;;;;9.50;5.13;;;8.10;99.90;;;;;;4931351;29;20957;-50
2022/11/05 09:12:20;;;;;;;8.60;4.60;;;8.10;99.90;;;;;;4926668;29;20193;-56
2022/11/05 09:14:45;;;;;;;11.10;5.00;;;8.20;99.90;;;;;;4929094;29;20269;-44
2022/11/05 09:17:19;;;;;;;10.73;5.00;;;8.20;99.90;;;;;;4929876;29;20626;-44
2022/11/05 09:19:45;;;;;;;9.60;5.17;;;8.30;99.90;;;;;;4927165;29;20187;-44
2022/11/05 09:22:11;;;;;;;8.20;4.40;;;8.40;99.90;;;;;;4928874;29;20809;-45
2022/11/05 09:24:41;;;;;;;12.73;4.30;;;8.50;37.00;;;;;;4928969;29;20765;-46
2022/11/05 09:27:14;;;;;;;8.00;4.20;;;8.60;1.00;;;;;;4928706;29;20418;-45
2022/11/05 09:29:41;;;;;;;13.20;4.17;;;8.70;1.00;;;;;;4928450;29;20449;-50
2022/11/05 09:32:07;;;;;;;9.63;4.13;;;8.80;1.00;;;;;;4928833;29;21240;-45
2022/11/05 09:34:33;;;;;;;7.47;3.77;;;8.90;99.90;;;;;;4943973;29;20434;-44
2022/11/05 09:36:59;;;;;;;14.77;3.90;;;9.00;99.90;;;;;;4929374;29;20529;-45
2022/11/05 09:39:25;;;;;;;8.60;3.73;;;9.10;1.00;;;;;;4928356;29;20458;-44
2022/11/05 09:41:54;;;;;;;6.53;3.73;;;9.20;1.00;;;;;;4928216;29;20426;-44
2022/11/05 09:44:27;;;;;;;8.53;3.97;;;9.20;1.00;;;;;;4928531;29;20189;-45
2022/11/05 09:47:00;;;;;;;12.17;4.40;;;9.30;1.00;;;;;;4928655;29;20481;-44
2022/11/05 09:49:41;;;;;;;7.57;3.73;;;9.50;99.90;;;;;;4926929;29;20486;-44
2022/11/05 09:52:16;;;;;;;13.60;4.90;;;9.50;1.00;;;;;;4929459;29;20521;-45
2022/11/05 09:54:42;;;;;;;11.23;4.13;;;9.70;60.70;;;;;;4928820;29;20426;-45
2022/11/05 09:57:13;;;;;;;7.40;3.73;;;9.80;1.00;;;;;;4931258;29;20489;-44
2022/11/05 09:59:52;;;;;;;7.27;3.60;;;9.90;99.90;;;;;;4929958;29;20294;-44
2022/11/05 10:02:28;;;;;;;7.20;3.90;;;10.10;99.90;;;;;;4928423;29;20430;-43
2022/11/05 10:04:59;;;;;;;5.80;3.77;;;10.40;1.00;;;;;;4927957;29;20469;-43
2022/11/05 10:07:30;;;;;;;8.30;3.73;;;10.70;33.20;;;;;;4928049;29;21056;-44
2022/11/05 10:10:02;;;;;;;7.90;3.33;;;11.00;99.90;;;;;;4929406;29;20846;-44
2022/11/05 10:12:40;;;;;;;5.00;3.37;;;11.50;70.10;;;;;;4927247;29;20453;-44
2022/11/05 10:15:14;;;;;;;19.73;3.43;;;11.90;1.00;;;;;;4928041;29;20477;-44
2022/11/05 10:17:43;;;;;;;3.70;2.90;;;12.20;1.00;;;;;;4928336;29;20466;-44
2022/11/05 10:20:33;;;;;;;11.70;3.37;;;12.60;1.00;;;;;;4929413;29;20434;-44
2022/11/05 10:23:13;;;;;;;8.33;3.33;;;13.50;1.00;;;;;;4927889;29;20422;-44
2022/11/05 10:25:44;;;;;;;8.83;3.40;;;15.60;1.00;;;;;;4935503;29;20828;-44
2022/11/05 10:28:18;;;;;;;5.83;2.90;;;16.80;1.00;;;;;;4934577;29;20484;-45
2022/11/05 10:30:50;;;;;;;12.03;3.40;;;17.70;1.00;;;;;;4937655;29;20837;-45
2022/11/05 10:33:23;;;;;;;6.80;2.70;;;18.30;1.00;;;;;;4939402;29;20430;-44
2022/11/05 10:35:51;;;;;;;5.03;2.80;;;17.30;1.00;;;;;;4934058;29;20520;-44
2022/11/05 10:38:17;;;;;;;5.80;2.90;;;16.40;1.00;;;;;;4934134;29;20983;-45
2022/11/05 10:41:01;;;;;;;7.17;2.90;;;15.50;1.00;;;;;;4935717;29;20422;-44
2022/11/05 10:43:34;;;;;;;7.57;3.13;;;14.50;1.00;;;;;;4939097;29;20508;-45
2022/11/05 10:46:05;;;;;;;7.27;3.00;;;13.90;1.00;;;;;;4938886;29;20445;-44
2022/11/05 10:48:50;;;;;;;5.73;2.50;;;14.20;1.00;;;;;;4929147;29;20558;-46
2022/11/05 10:51:17;;;;;;;8.00;2.83;;;15.90;1.00;;;;;;4939339;29;20536;-42
2022/11/05 10:53:51;;;;;;;6.60;3.10;;;18.30;1.00;;;;;;4938761;29;20516;-42
2022/11/05 10:56:47;;;;;;;7.30;2.43;;;19.60;1.00;;;;;;4937496;29;20430;-45
2022/11/05 10:59:27;;;;;;;6.70;2.57;;;20.80;1.00;;;;;;4938039;29;20482;-45
2022/11/05 11:01:58;;;;;;;3.50;2.37;;;21.00;1.00;;;;;;4938701;29;20430;-42
2022/11/05 11:04:26;;;;;;;9.23;3.40;;;21.30;1.00;;;;;;4939527;29;20426;-42
2022/11/05 11:06:56;;;;;;;9.73;3.07;;;21.30;1.00;;;;;;4938411;29;20459;-44
2022/11/05 11:09:31;;;;;;;8.57;2.73;;;21.70;1.00;;;;;;4936175;29;20438;-43
2022/11/05 11:12:10;;;;;;;3.40;2.20;;;21.90;1.00;;;;;;4938080;29;20429;-44
2022/11/05 11:14:36;;;;;;;7.53;2.30;;;21.40;1.00;;;;;;4932579;29;20913;-43
2022/11/05 11:17:22;;;;;;;5.47;2.50;;;20.90;1.00;;;;;;4927561;29;20445;-43
2022/11/05 11:19:47;;;;;;;5.83;2.40;;;19.70;1.00;;;;;;4933019;29;20676;-43
2022/11/05 11:22:17;;;;;;;6.20;2.60;;;19.50;1.00;;;;;;4933955;29;20458;-43
2022/11/05 11:24:46;;;;;;;6.87;2.67;;;19.00;1.00;;;;;;4938766;29;20186;-43
2022/11/05 11:27:27;;;;;;;6.33;2.60;;;18.00;1.00;;;;;;4938844;29;20441;-43
2022/11/05 11:30:00;;;;;;;4.77;2.57;;;17.40;1.00;;;;;;4934338;29;20438;-44
2022/11/05 11:32:37;;;;;;;3.63;2.40;;;17.90;1.00;;;;;;4935043;29;20439;-43
2022/11/05 11:35:05;;;;;;;6.60;2.20;;;18.50;1.00;;;;;;4934831;29;20537;-43
2022/11/05 11:37:36;;;;;;;5.20;2.30;;;18.80;1.00;;;;;;4934776;29;20465;-43
2022/11/05 11:40:15;;;;;;;5.13;2.37;;;19.50;1.00;;;;;;4925781;29;20442;-44
2022/11/05 11:42:46;;;;;;;4.60;2.47;;;20.60;1.00;;;;;;4934269;29;20474;-44
2022/11/05 11:45:19;;;;;;;5.03;2.37;;;20.90;1.00;;;;;;4935846;29;20518;-43
2022/11/05 11:47:47;;;;;;;3.20;2.20;;;21.20;1.00;;;;;;4934965;29;20517;-43
2022/11/05 11:50:36;;;;;;;5.80;2.17;;;20.80;1.00;;;;;;4929135;29;20442;-43
2022/11/05 11:53:20;;;;;;;7.70;2.33;;;20.60;1.00;;;;;;4933479;29;20436;-43
2022/11/05 11:56:11;;;;;;;6.47;2.53;;;20.30;1.00;;;;;;4934927;29;20434;-44
2022/11/05 11:58:39;;;;;;;11.13;2.43;;;20.10;1.00;;;;;;4931108;29;20529;-44
2022/11/05 12:01:25;;;;;;;5.53;3.07;;;19.20;1.00;;;;;;4935075;29;20604;-43
2022/11/05 12:04:13;;;;;;;3.57;2.70;;;18.00;1.00;;;;;;4935577;29;20441;-43
2022/11/05 12:07:04;;;;;;;6.77;2.83;;;17.20;1.00;;;;;;4934943;29;20510;-44
2022/11/05 12:09:50;;;;;;;13.70;2.80;;;16.40;1.00;;;;;;4935032;29;20437;-43
2022/11/05 12:12:20;;;;;;;9.60;3.67;;;15.70;1.00;;;;;;4934849;29;20442;-44
2022/11/05 12:14:59;;;;;;;6.13;2.80;;;15.40;1.00;;;;;;4934970;29;20438;-44
2022/11/05 12:17:51;;;;;;;3.97;2.47;;;15.60;1.00;;;;;;4935068;29;20433;-44
2022/11/05 12:20:37;;;;;;;5.33;2.63;;;16.00;1.00;;;;;;4934961;29;20462;-44
2022/11/05 12:23:48;;;;;;;4.70;2.53;;;17.10;1.00;;;;;;4934869;29;20430;-44
2022/11/05 12:26:22;;;;;;;7.67;2.50;;;18.60;1.00;;;;;;4915927;29;20466;-44
2022/11/05 12:29:03;;;;;;;6.00;2.60;;;19.80;1.00;;;;;;4934371;29;20462;-44
2022/11/05 12:31:43;;;;;;;9.10;2.60;;;21.00;1.00;;;;;;4935052;29;20799;-44
2022/11/05 12:34:26;;;;;;;6.57;2.50;;;21.40;1.00;;;;;;4934220;29;21050;-44
2022/11/05 12:37:19;;;;;;;5.23;2.77;;;21.50;1.00;;;;;;4934088;29;20493;-44
2022/11/05 12:40:00;;;;;;;4.20;2.10;;;22.30;1.00;;;;;;4932649;29;20441;-44
2022/11/05 12:42:34;;;;;;;4.03;2.60;;;23.40;1.00;;;;;;4934399;29;20426;-44
2022/11/05 12:45:18;;;;;;;7.10;2.57;;;23.40;99.90;;;;;;4934431;29;20842;-44
2022/11/05 12:48:22;;;;;;;5.73;2.90;;;23.60;99.90;;;;;;4933868;29;20687;-44
2022/11/05 12:51:09;;;;;;;10.03;3.00;;;23.10;99.90;;;;;;4918716;29;20504;-44
2022/11/05 12:53:37;;;;;;;5.00;2.83;;;21.90;99.90;;;;;;4934072;29;20441;-44
2022/11/05 12:56:12;;;;;;;4.83;2.57;;;20.70;99.90;;;;;;4920609;29;20434;-45
2022/11/05 12:58:56;;;;;;;6.13;2.40;;;19.70;99.90;;;;;;4932980;29;20978;-45
2022/11/05 13:01:31;;;;;;;13.03;2.73;;;18.70;99.90;;;;;;4921970;29;20429;-45
2022/11/05 13:04:05;;;;;;;7.60;2.50;;;17.80;1.00;;;;;;4934368;29;20434;-44
2022/11/05 13:06:39;;;;;;;3.93;2.33;;;17.90;1.00;;;;;;4934123;29;20424;-44
2022/11/05 13:09:17;;;;;;;6.43;3.40;;;17.50;1.00;;;;;;4933921;29;21126;-45
2022/11/05 13:11:56;;;;;;;9.70;8.97;;;17.90;1.00;;;;;;4933621;29;20850;-44
2022/11/05 13:14:27;;;;;;;18.57;11.73;;;17.50;1.00;;;;;;4933348;29;20962;-45
2022/11/05 13:16:59;;;;;;;8.77;3.40;;;16.90;1.00;;;;;;4927505;29;20422;-44
2022/11/05 13:19:34;;;;;;;5.00;3.03;;;15.90;1.00;;;;;;4933317;29;20553;-44
2022/11/05 13:22:16;;;;;;;5.50;2.90;;;15.40;1.00;;;;;;4933908;29;20426;-44
2022/11/05 13:24:50;;;;;;;5.50;3.10;;;14.90;1.00;;;;;;4933639;29;20434;-44
2022/11/05 13:27:53;;;;;;;7.27;3.40;;;14.40;1.00;;;;;;4933360;29;20493;-44
2022/11/05 13:30:27;;;;;;;5.17;3.30;;;14.20;1.00;;;;;;4932022;29;20497;-45
2022/11/05 13:33:11;;;;;;;22.13;6.30;;;14.30;1.00;;;;;;4933704;29;20426;-45
2022/11/05 13:38:58;;;;;;;5.50;2.90;;;15.00;1.00;;;;;;4927346;29;20540;-46
2022/11/05 13:41:46;;;;;;;4.87;3.20;;;14.90;1.00;;;;;;4931592;29;21374;-44
2022/11/05 13:44:34;;;;;;;5.90;3.20;;;14.30;1.00;;;;;;4929905;29;20488;-46
2022/11/05 13:47:08;;;;;;;8.30;3.00;;;13.70;1.00;;;;;;4932538;29;20925;-46
2022/11/05 13:49:37;;;;;;;8.27;3.53;;;13.30;1.00;;;;;;4932370;29;20473;-46
2022/11/05 13:52:39;;;;;;;5.50;3.30;;;13.10;1.00;;;;;;4933785;29;20410;-44
2022/11/05 13:55:27;;;;;;;7.90;3.50;;;12.80;1.00;;;;;;4915046;29;20727;-45
2022/11/05 13:58:29;;;;;;;7.60;3.43;;;12.70;1.00;;;;;;4913434;29;20479;-45
2022/11/05 14:01:08;;;;;;;7.37;3.63;;;12.70;1.00;;;;;;4929178;29;20441;-45
2022/11/05 14:03:35;;;;;;;8.87;4.10;;;12.60;1.00;;;;;;4932109;29;20489;-45
2022/11/05 14:06:06;;;;;;;6.50;3.50;;;12.50;1.00;;;;;;4932005;29;20501;-45